Time;durP1;ratioP1;P1;durP2;ratioP2;P2;SDS_P1;SDS_P2;PMS_P1;PMS_P2;Temp;Humidity;BMP_temperature;BMP_pressure;BME280_temperature;BME280_humidity;BME280_pressure;Samples;Min_cycle;Max_cycle;Signal;HPM_P1;HPM_P2
2021/12/31 00:01:11;;;;;;;;;14.67;14.67;;;;;;;;4976986;28;45516;-58
2021/12/31 00:03:37;;;;;;;;;13.33;12.33;;;;;;;;4977403;28;45229;-59
2021/12/31 00:06:02;;;;;;;;;13.00;13.00;;;;;;;;4977294;28;45300;-58
2021/12/31 00:08:27;;;;;;;;;14.00;14.00;;;;;;;;4977491;28;45285;-59
2021/12/31 00:10:59;;;;;;;;;13.67;13.67;;;;;;;;4977112;28;45560;-59
2021/12/31 00:13:24;;;;;;;;;13.67;13.67;;;;;;;;4976975;28;46046;-58
2021/12/31 00:15:49;;;;;;;;;13.33;13.33;;;;;;;;4976988;28;45316;-59
2021/12/31 00:18:15;;;;;;;;;18.00;14.00;;;;;;;;4977088;28;45370;-59
2021/12/31 00:20:41;;;;;;;;;16.33;13.67;;;;;;;;4976667;28;45600;-59
2021/12/31 00:23:08;;;;;;;;;12.33;12.33;;;;;;;;4975124;28;47446;-58
2021/12/31 00:25:37;;;;;;;;;12.67;12.67;;;;;;;;4976697;28;45258;-59
2021/12/31 00:28:03;;;;;;;;;14.67;14.33;;;;;;;;4976795;28;45362;-59
2021/12/31 00:30:28;;;;;;;;;14.67;13.67;;;;;;;;4976547;28;45329;-57
2021/12/31 00:32:53;;;;;;;;;21.00;15.33;;;;;;;;4976348;28;45361;-59
2021/12/31 00:35:19;;;;;;;;;13.00;13.00;;;;;;;;4976220;28;45414;-59
2021/12/31 00:37:44;;;;;;;;;15.67;15.67;;;;;;;;4977065;28;45376;-58
2021/12/31 00:40:12;;;;;;;;;14.00;13.00;;;;;;;;4976839;28;45489;-58
2021/12/31 00:42:37;;;;;;;;;14.67;13.33;;;;;;;;4976520;28;45418;-58
2021/12/31 00:45:03;;;;;;;;;12.00;12.00;;;;;;;;4975982;28;45365;-59
2021/12/31 00:47:29;;;;;;;;;20.00;18.00;;;;;;;;4976795;28;45392;-57
2021/12/31 00:49:54;;;;;;;;;19.33;19.33;;;;;;;;4976663;28;45642;-58
2021/12/31 00:52:19;;;;;;;;;20.33;18.67;;;;;;;;4976414;28;46157;-58
2021/12/31 00:54:44;;;;;;;;;23.67;18.67;;;;;;;;4976539;28;45360;-56
2021/12/31 00:57:10;;;;;;;;;18.67;18.67;;;;;;;;4976366;28;45369;-59
2021/12/31 00:59:35;;;;;;;;;20.33;20.33;;;;;;;;4976667;28;45549;-58
2021/12/31 01:02:03;;;;;;;;;22.33;20.33;;;;;;;;4976265;28;45379;-58
2021/12/31 01:04:29;;;;;;;;;22.33;20.33;;;;;;;;4975865;28;45368;-59
2021/12/31 01:06:55;;;;;;;;;23.00;20.00;;;;;;;;4975947;28;45317;-58
2021/12/31 01:09:20;;;;;;;;;16.67;15.67;;;;;;;;4976360;28;45407;-58
2021/12/31 01:11:47;;;;;;;;;19.67;19.33;;;;;;;;4976287;28;45419;-57
2021/12/31 01:16:57;;;;;;;;;12.00;12.00;;;;;;;;4976216;28;45319;-59
2021/12/31 01:21:48;;;;;;;;;14.00;14.00;;;;;;;;4975794;28;45285;-57
2021/12/31 01:24:13;;;;;;;;;14.67;13.00;;;;;;;;4976204;28;45328;-59
2021/12/31 01:26:38;;;;;;;;;17.33;17.33;;;;;;;;4976033;28;45274;-59
2021/12/31 01:29:03;;;;;;;;;14.00;13.00;;;;;;;;4975373;28;45624;-58
2021/12/31 01:31:29;;;;;;;;;15.33;15.33;;;;;;;;4976023;28;46223;-60
2021/12/31 01:33:54;;;;;;;;;13.67;13.33;;;;;;;;4975971;28;45177;-59
2021/12/31 01:36:19;;;;;;;;;13.67;13.67;;;;;;;;4974975;28;45132;-57
2021/12/31 01:38:45;;;;;;;;;13.67;12.00;;;;;;;;4976039;28;45249;-58
2021/12/31 01:41:10;;;;;;;;;13.67;12.00;;;;;;;;4975283;28;45866;-59
2021/12/31 01:43:36;;;;;;;;;14.00;13.33;;;;;;;;4970069;28;45705;-58
2021/12/31 01:46:10;;;;;;;;;17.67;17.00;;;;;;;;4956543;28;45563;-59
2021/12/31 01:48:48;;;;;;;;;21.00;20.00;;;;;;;;4956538;28;45302;-58
2021/12/31 01:51:13;;;;;;;;;23.00;23.00;;;;;;;;4955912;28;45941;-57
2021/12/31 01:53:38;;;;;;;;;19.67;19.67;;;;;;;;4956213;28;45415;-59
2021/12/31 01:56:04;;;;;;;;;20.00;20.00;;;;;;;;4956506;28;45519;-58
2021/12/31 01:58:30;;;;;;;;;17.67;16.67;;;;;;;;4957765;28;45466;-59
2021/12/31 02:00:55;;;;;;;;;18.33;18.33;;;;;;;;4958069;28;46189;-58
2021/12/31 02:03:21;;;;;;;;;17.33;16.33;;;;;;;;4959230;28;45355;-58
2021/12/31 02:05:47;;;;;;;;;22.67;19.67;;;;;;;;4959629;28;45298;-59
2021/12/31 02:08:12;;;;;;;;;20.67;19.00;;;;;;;;4959677;28;45298;-59
2021/12/31 02:10:37;;;;;;;;;30.00;27.00;;;;;;;;4959596;28;46062;-57
2021/12/31 02:13:03;;;;;;;;;27.00;24.33;;;;;;;;4959019;28;45385;-58
2021/12/31 02:15:30;;;;;;;;;19.67;16.67;;;;;;;;4959520;28;45246;-58
2021/12/31 02:17:59;;;;;;;;;20.33;19.33;;;;;;;;4958828;28;45599;-59
2021/12/31 02:20:33;;;;;;;;;20.00;19.67;;;;;;;;4959015;28;45325;-59
2021/12/31 02:23:06;;;;;;;;;15.33;15.33;;;;;;;;4959055;28;45343;-61
2021/12/31 02:25:33;;;;;;;;;22.33;17.00;;;;;;;;4958055;28;45259;-59
2021/12/31 02:27:58;;;;;;;;;15.67;14.00;;;;;;;;4959308;28;45543;-57
2021/12/31 02:30:24;;;;;;;;;19.33;18.00;;;;;;;;4958927;28;46317;-59
2021/12/31 02:32:49;;;;;;;;;13.33;13.00;;;;;;;;4959261;28;45338;-58
2021/12/31 02:35:14;;;;;;;;;16.67;13.67;;;;;;;;4958779;28;45297;-58
2021/12/31 02:37:40;;;;;;;;;16.00;16.00;;;;;;;;4974133;28;45496;-57
2021/12/31 02:40:08;;;;;;;;;13.33;13.33;;;;;;;;4959065;28;46133;-58
2021/12/31 02:42:33;;;;;;;;;9.00;9.00;;;;;;;;4959049;28;46160;-58
2021/12/31 02:44:59;;;;;;;;;10.00;10.00;;;;;;;;4958877;28;45320;-58
2021/12/31 02:47:24;;;;;;;;;15.00;13.33;;;;;;;;4958762;28;45479;-57
2021/12/31 02:49:49;;;;;;;;;10.33;10.33;;;;;;;;4958707;28;45287;-58
2021/12/31 02:52:16;;;;;;;;;9.00;9.00;;;;;;;;4957581;28;45363;-59
2021/12/31 02:54:43;;;;;;;;;7.33;7.33;;;;;;;;4959003;28;45297;-57
2021/12/31 02:57:09;;;;;;;;;9.67;8.00;;;;;;;;4958385;28;45425;-58
2021/12/31 02:59:34;;;;;;;;;9.00;9.00;;;;;;;;4958681;28;46397;-56
2021/12/31 03:01:59;;;;;;;;;9.33;9.33;;;;;;;;4958784;28;45282;-58
2021/12/31 03:04:25;;;;;;;;;6.00;6.00;;;;;;;;4959000;28;45271;-57
2021/12/31 03:06:52;;;;;;;;;9.00;9.00;;;;;;;;4958717;28;45248;-59
2021/12/31 03:09:22;;;;;;;;;9.00;9.00;;;;;;;;4957402;28;46320;-59
2021/12/31 03:11:48;;;;;;;;;8.33;8.33;;;;;;;;4958109;28;45357;-55
2021/12/31 03:14:14;;;;;;;;;8.00;8.00;;;;;;;;4958548;28;45416;-58
2021/12/31 03:16:39;;;;;;;;;10.67;7.33;;;;;;;;4958520;28;45504;-59
2021/12/31 03:19:05;;;;;;;;;8.67;8.33;;;;;;;;4957797;28;46044;-58
2021/12/31 03:21:30;;;;;;;;;10.33;7.33;;;;;;;;4958343;28;45409;-59
2021/12/31 03:23:58;;;;;;;;;6.00;6.00;;;;;;;;4958643;28;45382;-58
2021/12/31 03:26:23;;;;;;;;;8.00;7.67;;;;;;;;4973043;28;45349;-57
2021/12/31 03:28:49;;;;;;;;;11.33;10.33;;;;;;;;4958080;28;45330;-59
2021/12/31 03:31:14;;;;;;;;;7.67;7.67;;;;;;;;4957802;28;45480;-59
2021/12/31 03:33:39;;;;;;;;;8.00;5.67;;;;;;;;4958443;28;45226;-59
2021/12/31 03:36:05;;;;;;;;;9.67;9.67;;;;;;;;4958409;28;45532;-58
2021/12/31 03:38:30;;;;;;;;;11.00;11.00;;;;;;;;4958256;28;46169;-57
2021/12/31 03:40:55;;;;;;;;;9.67;9.67;;;;;;;;4957733;28;45356;-59
2021/12/31 03:43:20;;;;;;;;;7.33;6.00;;;;;;;;4958326;28;45368;-59
2021/12/31 03:45:46;;;;;;;;;10.00;8.67;;;;;;;;4958400;28;45557;-59
2021/12/31 03:48:12;;;;;;;;;8.00;6.33;;;;;;;;4958237;28;46368;-55
2021/12/31 03:50:37;;;;;;;;;8.00;8.00;;;;;;;;4958020;28;45352;-58
2021/12/31 03:53:02;;;;;;;;;10.33;8.33;;;;;;;;4957658;28;45329;-59
2021/12/31 03:55:28;;;;;;;;;9.33;9.33;;;;;;;;4958412;28;45289;-58
2021/12/31 03:57:53;;;;;;;;;8.00;8.00;;;;;;;;4956636;28;45396;-59
2021/12/31 04:00:18;;;;;;;;;9.00;8.00;;;;;;;;4958108;28;45254;-58
2021/12/31 04:02:44;;;;;;;;;8.00;8.00;;;;;;;;4957735;28;45325;-58
2021/12/31 04:05:09;;;;;;;;;8.00;8.00;;;;;;;;4973161;28;45294;-58
2021/12/31 04:07:34;;;;;;;;;10.67;9.67;;;;;;;;4972910;28;46998;-56
2021/12/31 04:10:00;;;;;;;;;13.67;12.00;;;;;;;;4957891;28;45299;-59
2021/12/31 04:12:25;;;;;;;;;12.33;11.00;;;;;;;;4957821;28;45401;-58
2021/12/31 04:14:51;;;;;;;;;9.00;8.00;;;;;;;;4957221;28;45452;-58
2021/12/31 04:17:16;;;;;;;;;9.67;8.33;;;;;;;;4957613;28;46089;-59
2021/12/31 04:19:42;;;;;;;;;9.33;8.67;;;;;;;;4957611;28;45215;-57
2021/12/31 04:22:08;;;;;;;;;10.00;10.00;;;;;;;;4957600;28;45377;-58
2021/12/31 04:27:08;;;;;;;;;8.67;8.67;;;;;;;;4957526;28;46106;-59
2021/12/31 04:29:33;;;;;;;;;10.00;8.67;;;;;;;;4957557;28;45246;-57
2021/12/31 04:32:00;;;;;;;;;9.67;9.00;;;;;;;;4957589;28;45302;-58
2021/12/31 04:34:26;;;;;;;;;7.67;7.67;;;;;;;;4957729;28;45472;-59
2021/12/31 04:36:51;;;;;;;;;8.33;8.33;;;;;;;;4955435;28;47897;-58
2021/12/31 04:39:16;;;;;;;;;8.00;8.00;;;;;;;;4957573;28;45235;-56
2021/12/31 04:41:41;;;;;;;;;9.00;7.00;;;;;;;;4956070;28;45370;-58
2021/12/31 04:44:06;;;;;;;;;8.00;8.00;;;;;;;;4957622;28;45473;-59
2021/12/31 04:46:32;;;;;;;;;8.00;8.00;;;;;;;;4956855;28;46563;-59
2021/12/31 04:48:57;;;;;;;;;6.00;6.00;;;;;;;;4957425;28;45366;-58
2021/12/31 04:51:22;;;;;;;;;9.00;9.00;;;;;;;;4957555;28;45350;-59
2021/12/31 04:53:47;;;;;;;;;4.00;4.00;;;;;;;;4957370;28;45440;-59
2021/12/31 04:56:12;;;;;;;;;5.00;4.00;;;;;;;;4957125;28;46074;-56
2021/12/31 04:58:37;;;;;;;;;7.33;7.33;;;;;;;;4956544;28;45314;-57
2021/12/31 05:01:03;;;;;;;;;5.33;5.33;;;;;;;;4957483;28;45334;-57
2021/12/31 05:03:28;;;;;;;;;5.67;5.00;;;;;;;;4957469;28;45464;-58
2021/12/31 05:05:53;;;;;;;;;6.00;6.00;;;;;;;;4957180;28;46395;-59
2021/12/31 05:08:19;;;;;;;;;8.00;6.67;;;;;;;;4956748;28;45543;-57
2021/12/31 05:10:44;;;;;;;;;4.67;3.00;;;;;;;;4957250;28;45318;-59
2021/12/31 05:13:14;;;;;;;;;5.00;5.00;;;;;;;;4956751;28;45333;-59
2021/12/31 05:15:45;;;;;;;;;4.67;4.67;;;;;;;;4955365;28;46926;-59
2021/12/31 05:18:10;;;;;;;;;8.67;8.00;;;;;;;;4956886;28;45264;-59
2021/12/31 05:20:35;;;;;;;;;5.00;5.00;;;;;;;;4956393;28;45644;-57
2021/12/31 05:23:00;;;;;;;;;8.33;7.67;;;;;;;;4956977;28;45381;-57
2021/12/31 05:25:26;;;;;;;;;6.33;6.33;;;;;;;;4956794;28;45326;-59
2021/12/31 05:27:51;;;;;;;;;6.67;6.33;;;;;;;;4956765;28;45333;-58
2021/12/31 05:30:16;;;;;;;;;6.00;6.00;;;;;;;;4956426;28;45383;-58
2021/12/31 05:32:42;;;;;;;;;6.67;6.33;;;;;;;;4957046;28;45263;-58
2021/12/31 05:35:07;;;;;;;;;9.00;6.67;;;;;;;;4960132;28;45475;-59
2021/12/31 05:37:32;;;;;;;;;9.67;7.33;;;;;;;;4960241;28;45297;-59
2021/12/31 05:39:58;;;;;;;;;5.00;5.00;;;;;;;;4960345;28;45223;-58
2021/12/31 05:42:23;;;;;;;;;6.00;6.00;;;;;;;;4958243;28;45541;-58
2021/12/31 05:44:48;;;;;;;;;6.33;6.33;;;;;;;;4960174;28;46102;-59
2021/12/31 05:47:14;;;;;;;;;6.67;6.67;;;;;;;;4960054;28;45159;-59
2021/12/31 05:49:39;;;;;;;;;9.00;8.00;;;;;;;;4960102;28;45365;-59
2021/12/31 05:52:04;;;;;;;;;5.00;5.00;;;;;;;;4959745;28;45461;-58
2021/12/31 05:54:30;;;;;;;;;8.00;8.00;;;;;;;;4959663;28;45417;-59
2021/12/31 05:56:55;;;;;;;;;6.33;6.33;;;;;;;;4959884;28;45178;-57
2021/12/31 05:59:20;;;;;;;;;8.67;8.67;;;;;;;;4959877;28;45299;-58
2021/12/31 06:01:46;;;;;;;;;7.67;7.67;;;;;;;;4959886;28;45532;-58
2021/12/31 06:04:11;;;;;;;;;7.67;7.67;;;;;;;;4959174;28;46019;-58
2021/12/31 06:06:36;;;;;;;;;8.00;8.00;;;;;;;;4959752;28;45351;-58
2021/12/31 06:09:04;;;;;;;;;9.33;6.67;;;;;;;;4959901;28;45242;-59
2021/12/31 06:11:29;;;;;;;;;8.00;8.00;;;;;;;;4959630;28;45420;-57
2021/12/31 06:14:05;;;;;;;;;5.00;5.00;;;;;;;;4959176;28;46387;-59
2021/12/31 06:16:33;;;;;;;;;5.33;5.33;;;;;;;;4974045;28;45406;-59
2021/12/31 06:18:58;;;;;;;;;5.00;5.00;;;;;;;;4959644;28;45259;-58
2021/12/31 06:21:23;;;;;;;;;7.33;7.33;;;;;;;;4957924;28;45248;-57
2021/12/31 06:23:49;;;;;;;;;5.00;5.00;;;;;;;;4959463;28;46390;-58
2021/12/31 06:26:14;;;;;;;;;8.00;8.00;;;;;;;;4959015;28;45179;-58
2021/12/31 06:28:39;;;;;;;;;7.67;7.67;;;;;;;;4959741;28;45319;-59
2021/12/31 06:31:04;;;;;;;;;8.67;8.00;;;;;;;;4959486;28;45167;-58
2021/12/31 06:33:29;;;;;;;;;7.67;6.67;;;;;;;;4959291;28;45383;-58
2021/12/31 06:35:54;;;;;;;;;8.67;7.67;;;;;;;;4959164;28;45319;-58
2021/12/31 06:38:20;;;;;;;;;7.00;7.00;;;;;;;;4959085;28;45247;-58
2021/12/31 06:40:46;;;;;;;;;9.00;9.00;;;;;;;;4959064;28;45350;-58
2021/12/31 06:43:11;;;;;;;;;7.67;7.67;;;;;;;;4959144;28;45298;-60
2021/12/31 06:45:36;;;;;;;;;11.33;9.67;;;;;;;;4959002;28;46036;-58
2021/12/31 06:48:01;;;;;;;;;8.00;8.00;;;;;;;;4958790;28;45472;-57
2021/12/31 06:50:27;;;;;;;;;8.67;8.67;;;;;;;;4959091;28;45641;-57
2021/12/31 06:52:52;;;;;;;;;7.67;7.67;;;;;;;;4958920;28;45873;-58
2021/12/31 06:55:17;;;;;;;;;8.67;8.00;;;;;;;;4957797;28;45392;-58
2021/12/31 06:57:42;;;;;;;;;9.00;7.33;;;;;;;;4959008;28;45476;-57
2021/12/31 07:00:09;;;;;;;;;7.67;7.67;;;;;;;;4958332;28;45536;-56
2021/12/31 07:02:34;;;;;;;;;8.00;8.00;;;;;;;;4958640;28;45427;-58
2021/12/31 07:04:59;;;;;;;;;10.00;10.00;;;;;;;;4958742;28;45374;-59
2021/12/31 07:07:25;;;;;;;;;10.33;8.00;;;;;;;;4958959;28;45302;-56
2021/12/31 07:09:50;;;;;;;;;7.67;7.67;;;;;;;;4958238;28;45607;-58
2021/12/31 07:12:16;;;;;;;;;8.33;8.00;;;;;;;;4958511;28;45317;-58
2021/12/31 07:14:41;;;;;;;;;8.67;8.33;;;;;;;;4957512;28;45374;-59
2021/12/31 07:17:06;;;;;;;;;11.00;10.00;;;;;;;;4958641;28;45366;-58
2021/12/31 07:19:31;;;;;;;;;9.00;8.00;;;;;;;;4958600;28;45579;-59
2021/12/31 07:21:56;;;;;;;;;12.00;10.00;;;;;;;;4958201;28;46008;-57
2021/12/31 07:24:22;;;;;;;;;10.00;9.67;;;;;;;;4958605;28;45393;-58
2021/12/31 07:26:47;;;;;;;;;9.00;9.00;;;;;;;;4958633;28;45374;-59
2021/12/31 07:29:12;;;;;;;;;7.33;7.33;;;;;;;;4958568;28;45476;-57
2021/12/31 07:31:37;;;;;;;;;9.67;8.67;;;;;;;;4957728;28;45442;-58
2021/12/31 07:34:03;;;;;;;;;10.00;9.67;;;;;;;;4958393;28;45314;-59
2021/12/31 07:36:29;;;;;;;;;9.33;9.33;;;;;;;;4958456;28;45204;-59
2021/12/31 07:39:06;;;;;;;;;8.33;8.00;;;;;;;;4958391;28;45436;-56
2021/12/31 07:41:31;;;;;;;;;11.67;11.00;;;;;;;;4958192;28;45381;-59
2021/12/31 07:43:57;;;;;;;;;7.67;7.67;;;;;;;;4957819;28;45404;-58
2021/12/31 07:46:22;;;;;;;;;9.33;8.67;;;;;;;;4958314;28;45651;-59
2021/12/31 07:48:47;;;;;;;;;9.00;9.00;;;;;;;;4958416;28;45381;-58
2021/12/31 07:51:12;;;;;;;;;10.00;10.00;;;;;;;;4958096;28;45539;-58
2021/12/31 07:53:38;;;;;;;;;7.00;7.00;;;;;;;;4957578;28;45321;-58
2021/12/31 07:56:03;;;;;;;;;8.00;8.00;;;;;;;;4956267;28;45309;-56
2021/12/31 07:58:28;;;;;;;;;9.00;8.00;;;;;;;;4958296;28;45293;-59
2021/12/31 08:00:54;;;;;;;;;10.00;10.00;;;;;;;;4957878;28;45349;-58
2021/12/31 08:03:19;;;;;;;;;9.67;9.67;;;;;;;;4958065;28;45400;-60
2021/12/31 08:05:44;;;;;;;;;12.67;10.00;;;;;;;;4957631;28;45272;-59
2021/12/31 08:08:09;;;;;;;;;9.33;9.33;;;;;;;;4957981;28;45270;-56
2021/12/31 08:10:35;;;;;;;;;11.67;9.00;;;;;;;;4957495;28;46460;-59
2021/12/31 08:13:01;;;;;;;;;10.00;9.33;;;;;;;;4957786;28;45409;-59
2021/12/31 08:15:26;;;;;;;;;10.67;9.00;;;;;;;;4957339;28;45298;-56
2021/12/31 08:17:54;;;;;;;;;9.67;9.67;;;;;;;;4957946;28;45318;-57
2021/12/31 08:20:19;;;;;;;;;8.67;8.67;;;;;;;;4957434;28;45287;-56
2021/12/31 08:22:44;;;;;;;;;10.00;10.00;;;;;;;;4957583;28;45303;-59
2021/12/31 08:25:09;;;;;;;;;11.33;10.67;;;;;;;;4957955;28;45373;-57
2021/12/31 08:27:35;;;;;;;;;11.00;10.00;;;;;;;;4957067;28;45312;-58
2021/12/31 08:30:00;;;;;;;;;10.00;10.00;;;;;;;;4957392;28;45269;-58
2021/12/31 08:32:25;;;;;;;;;11.00;11.00;;;;;;;;4957210;28;45232;-59
2021/12/31 08:34:50;;;;;;;;;9.00;8.67;;;;;;;;4956324;28;45323;-59
2021/12/31 08:37:15;;;;;;;;;10.00;10.00;;;;;;;;4957148;28;45266;-59
2021/12/31 08:39:41;;;;;;;;;10.00;8.00;;;;;;;;4957264;28;45387;-54
2021/12/31 08:42:06;;;;;;;;;9.67;9.33;;;;;;;;4957381;28;45231;-59
2021/12/31 08:44:31;;;;;;;;;11.33;9.00;;;;;;;;4957603;28;45536;-57
2021/12/31 08:46:57;;;;;;;;;10.00;9.33;;;;;;;;4957405;28;45480;-59
2021/12/31 08:49:24;;;;;;;;;10.00;10.00;;;;;;;;4956604;28;45687;-59
2021/12/31 08:51:49;;;;;;;;;10.33;10.00;;;;;;;;4957013;28;45409;-55
2021/12/31 08:54:14;;;;;;;;;9.33;9.33;;;;;;;;4957266;28;45374;-58
2021/12/31 08:56:39;;;;;;;;;16.00;10.67;;;;;;;;4957231;28;45430;-58
2021/12/31 08:59:05;;;;;;;;;10.33;10.33;;;;;;;;4956635;28;45491;-58
2021/12/31 09:01:30;;;;;;;;;11.00;10.00;;;;;;;;4956620;28;45423;-58
2021/12/31 09:03:55;;;;;;;;;10.00;10.00;;;;;;;;4956867;28;45390;-57
2021/12/31 09:06:21;;;;;;;;;11.00;11.00;;;;;;;;4956969;28;45283;-57
2021/12/31 09:08:46;;;;;;;;;13.00;11.33;;;;;;;;4958593;28;45382;-58
2021/12/31 09:11:12;;;;;;;;;12.00;12.00;;;;;;;;4960302;28;45350;-59
2021/12/31 09:13:37;;;;;;;;;11.33;9.33;;;;;;;;4960349;28;45290;-59
2021/12/31 09:16:02;;;;;;;;;11.00;10.67;;;;;;;;4960351;28;45307;-59
2021/12/31 09:18:28;;;;;;;;;13.67;13.67;;;;;;;;4960230;28;45338;-58
2021/12/31 09:20:53;;;;;;;;;11.67;11.67;;;;;;;;4959967;28;45372;-59
2021/12/31 09:23:19;;;;;;;;;11.00;11.00;;;;;;;;4959952;28;45357;-58
2021/12/31 09:25:44;;;;;;;;;11.33;10.33;;;;;;;;4958946;28;45541;-56
2021/12/31 09:28:09;;;;;;;;;10.67;9.67;;;;;;;;4960022;28;45307;-58
2021/12/31 09:30:35;;;;;;;;;9.33;7.67;;;;;;;;4960207;28;45196;-58
2021/12/31 09:33:00;;;;;;;;;10.00;10.00;;;;;;;;4958495;28;45180;-57
2021/12/31 09:35:25;;;;;;;;;10.00;10.00;;;;;;;;4960166;28;45215;-59
2021/12/31 09:37:50;;;;;;;;;9.67;9.67;;;;;;;;4960050;28;45321;-59
2021/12/31 09:40:18;;;;;;;;;10.67;10.67;;;;;;;;4960110;28;45436;-60
2021/12/31 09:43:04;;;;;;;;;12.00;11.00;;;;;;;;4960299;28;45490;-57
2021/12/31 09:45:31;;;;;;;;;10.00;10.00;;;;;;;;4959716;28;45395;-59
2021/12/31 09:47:59;;;;;;;;;14.33;13.00;;;;;;;;4959776;28;45413;-59
2021/12/31 09:50:25;;;;;;;;;12.33;10.00;;;;;;;;4959855;28;45377;-59
2021/12/31 09:52:51;;;;;;;;;12.00;11.00;;;;;;;;4959842;28;45298;-59
2021/12/31 09:55:33;;;;;;;;;10.00;10.00;;;;;;;;4959172;28;45290;-58
2021/12/31 09:57:58;;;;;;;;;13.67;9.67;;;;;;;;4959539;28;46175;-58
2021/12/31 10:00:26;;;;;;;;;11.67;10.00;;;;;;;;4959548;28;45406;-58
2021/12/31 10:03:07;;;;;;;;;12.33;12.00;;;;;;;;4958478;28;45452;-58
2021/12/31 10:05:43;;;;;;;;;9.33;9.33;;;;;;;;4959086;28;45376;-59
2021/12/31 10:08:19;;;;;;;;;12.00;9.33;;;;;;;;4959421;28;46044;-58
2021/12/31 10:11:01;;;;;;;;;10.00;10.00;;;;;;;;4959467;28;45487;-59
2021/12/31 10:13:26;;;;;;;;;9.67;8.00;;;;;;;;4959623;28;45400;-58
2021/12/31 10:15:51;;;;;;;;;12.00;10.67;;;;;;;;4959284;28;45572;-58
2021/12/31 10:18:18;;;;;;;;;7.67;7.67;;;;;;;;4958912;28;46154;-59
2021/12/31 10:20:46;;;;;;;;;10.00;9.00;;;;;;;;4958703;28;45462;-59
2021/12/31 10:23:13;;;;;;;;;12.00;12.00;;;;;;;;4959474;28;45393;-56
2021/12/31 10:25:39;;;;;;;;;12.33;9.67;;;;;;;;4959614;28;45606;-60
2021/12/31 10:28:09;;;;;;;;;9.67;9.67;;;;;;;;4958449;28;45941;-59
2021/12/31 10:30:34;;;;;;;;;10.33;9.00;;;;;;;;4958367;28;45255;-56
2021/12/31 10:32:59;;;;;;;;;11.00;8.33;;;;;;;;4959271;28;45237;-63
2021/12/31 10:35:24;;;;;;;;;9.67;7.67;;;;;;;;4959265;28;45371;-59
2021/12/31 10:37:58;;;;;;;;;15.33;12.00;;;;;;;;4959126;28;45227;-58
2021/12/31 10:40:32;;;;;;;;;8.00;8.00;;;;;;;;4958934;28;45389;-59
2021/12/31 10:43:18;;;;;;;;;11.00;9.00;;;;;;;;4959319;28;45336;-55
2021/12/31 10:45:55;;;;;;;;;9.33;8.00;;;;;;;;4959380;28;45584;-59
2021/12/31 10:48:20;;;;;;;;;5.00;5.00;;;;;;;;4959051;28;45429;-59
2021/12/31 10:50:52;;;;;;;;;5.67;5.67;;;;;;;;4958249;28;45595;-59
2021/12/31 10:53:33;;;;;;;;;11.67;8.67;;;;;;;;4959009;28;45326;-60
2021/12/31 10:56:06;;;;;;;;;8.00;8.00;;;;;;;;4958871;28;45373;-59
2021/12/31 10:58:31;;;;;;;;;10.33;10.33;;;;;;;;4958683;28;46078;-57
2021/12/31 11:00:59;;;;;;;;;6.33;6.00;;;;;;;;4958282;28;45768;-58
2021/12/31 11:03:24;;;;;;;;;9.67;7.00;;;;;;;;4958789;28;45477;-60
2021/12/31 11:05:49;;;;;;;;;6.00;4.67;;;;;;;;4958703;28;45341;-59
2021/12/31 11:08:14;;;;;;;;;9.67;7.00;;;;;;;;4958561;28;46073;-58
2021/12/31 11:10:40;;;;;;;;;4.67;4.00;;;;;;;;4958720;28;45429;-59
2021/12/31 11:13:09;;;;;;;;;5.00;5.00;;;;;;;;4958190;28;45381;-57
2021/12/31 11:15:34;;;;;;;;;4.67;4.67;;;;;;;;4958708;28;45278;-59
2021/12/31 11:18:00;;;;;;;;;7.00;5.67;;;;;;;;4958577;28;45404;-57
2021/12/31 11:20:26;;;;;;;;;6.67;6.67;;;;;;;;4958493;28;45286;-59
2021/12/31 11:22:54;;;;;;;;;6.00;6.00;;;;;;;;4958277;28;45262;-57
2021/12/31 11:25:24;;;;;;;;;7.00;7.00;;;;;;;;4957041;28;45575;-58
2021/12/31 11:27:51;;;;;;;;;5.33;4.00;;;;;;;;4958352;28;45994;-58
2021/12/31 11:30:43;;;;;;;;;5.67;5.67;;;;;;;;4958033;28;45283;-58
2021/12/31 11:33:14;;;;;;;;;7.33;6.33;;;;;;;;4955324;28;45285;-58
2021/12/31 11:35:39;;;;;;;;;5.00;5.00;;;;;;;;4958340;28;45579;-57
2021/12/31 11:38:13;;;;;;;;;6.67;6.67;;;;;;;;4958207;28;45355;-60
2021/12/31 11:40:40;;;;;;;;;5.00;5.00;;;;;;;;4958201;28;45468;-58
2021/12/31 11:43:14;;;;;;;;;10.67;6.67;;;;;;;;4958409;28;45298;-59
2021/12/31 11:45:39;;;;;;;;;7.00;7.00;;;;;;;;4957607;28;45290;-59
2021/12/31 11:48:23;;;;;;;;;5.00;5.00;;;;;;;;4957693;28;45603;-59
2021/12/31 11:51:04;;;;;;;;;10.00;8.33;;;;;;;;4957871;28;45265;-57
2021/12/31 11:53:30;;;;;;;;;15.00;13.00;;;;;;;;4958241;28;45329;-58
2021/12/31 11:55:55;;;;;;;;;10.00;10.00;;;;;;;;4957656;28;45222;-59
2021/12/31 11:58:37;;;;;;;;;12.33;9.33;;;;;;;;4958064;28;46225;-58
2021/12/31 12:01:29;;;;;;;;;10.00;10.00;;;;;;;;4958114;28;45367;-59
2021/12/31 12:04:20;;;;;;;;;8.67;8.33;;;;;;;;4934848;28;45450;-59
2021/12/31 12:06:55;;;;;;;;;8.67;8.67;;;;;;;;4954469;28;45371;-59
2021/12/31 12:09:21;;;;;;;;;7.33;6.00;;;;;;;;4957555;28;46272;-59
2021/12/31 12:12:04;;;;;;;;;7.00;7.00;;;;;;;;4957878;28;45269;-59
2021/12/31 12:14:30;;;;;;;;;6.33;6.33;;;;;;;;4957956;28;45279;-60
2021/12/31 12:16:57;;;;;;;;;6.33;5.67;;;;;;;;4957606;28;45287;-58
2021/12/31 12:19:22;;;;;;;;;6.00;5.00;;;;;;;;4957236;28;45248;-58
2021/12/31 12:21:52;;;;;;;;;7.00;7.00;;;;;;;;4957201;28;45246;-59
2021/12/31 12:24:22;;;;;;;;;8.00;7.67;;;;;;;;4957828;28;45431;-60
2021/12/31 12:26:47;;;;;;;;;6.67;6.67;;;;;;;;4957555;28;45374;-58
2021/12/31 12:29:23;;;;;;;;;34.67;32.33;;;;;;;;4956616;28;45259;-57
2021/12/31 12:32:05;;;;;;;;;21.00;21.00;;;;;;;;4957472;28;45405;-59
2021/12/31 12:34:30;;;;;;;;;5.67;5.67;;;;;;;;4957479;28;45271;-57
2021/12/31 12:36:56;;;;;;;;;7.33;7.33;;;;;;;;4957488;28;45473;-59
2021/12/31 12:39:21;;;;;;;;;7.67;6.33;;;;;;;;4956972;28;46013;-59
2021/12/31 12:41:50;;;;;;;;;7.67;7.67;;;;;;;;4957256;28;45188;-59
2021/12/31 12:44:16;;;;;;;;;9.33;7.00;;;;;;;;4957445;28;45350;-59
2021/12/31 12:46:55;;;;;;;;;8.67;7.00;;;;;;;;4957297;28;45397;-59
2021/12/31 12:49:21;;;;;;;;;5.33;5.33;;;;;;;;4957124;28;45305;-59
2021/12/31 12:51:48;;;;;;;;;5.67;5.33;;;;;;;;4956597;28;45378;-59
2021/12/31 12:54:18;;;;;;;;;6.00;6.00;;;;;;;;4957306;28;45380;-58
2021/12/31 12:56:43;;;;;;;;;5.00;4.67;;;;;;;;4957278;28;45607;-59
2021/12/31 12:59:09;;;;;;;;;5.00;5.00;;;;;;;;4957030;28;45451;-59
2021/12/31 13:01:35;;;;;;;;;6.00;6.00;;;;;;;;4971608;28;45361;-58
2021/12/31 13:04:01;;;;;;;;;5.67;5.67;;;;;;;;4956963;28;45231;-57
2021/12/31 13:06:26;;;;;;;;;13.67;13.67;;;;;;;;4957056;28;45413;-58
2021/12/31 13:09:05;;;;;;;;;8.00;8.00;;;;;;;;4956616;28;46353;-58
2021/12/31 13:11:31;;;;;;;;;11.00;8.33;;;;;;;;4957065;28;45383;-58
2021/12/31 13:13:56;;;;;;;;;7.00;7.00;;;;;;;;4956548;28;45394;-58
2021/12/31 13:16:21;;;;;;;;;7.00;6.00;;;;;;;;4957029;28;45593;-57
2021/12/31 13:18:54;;;;;;;;;7.00;6.00;;;;;;;;4956601;28;46215;-57
2021/12/31 13:21:20;;;;;;;;;8.67;7.00;;;;;;;;4956773;28;45488;-56
2021/12/31 13:23:50;;;;;;;;;6.33;6.33;;;;;;;;4956515;28;45250;-58
2021/12/31 13:26:17;;;;;;;;;8.67;7.67;;;;;;;;4957065;28;45246;-58
2021/12/31 13:28:42;;;;;;;;;7.33;7.33;;;;;;;;4956547;28;45385;-59
2021/12/31 13:31:10;;;;;;;;;7.67;6.33;;;;;;;;4956865;28;45460;-58
2021/12/31 13:33:41;;;;;;;;;7.00;7.00;;;;;;;;4956842;28;45451;-58
2021/12/31 13:36:07;;;;;;;;;6.33;6.33;;;;;;;;4956123;28;45249;-59
2021/12/31 13:38:52;;;;;;;;;7.67;6.33;;;;;;;;4956439;28;45230;-59
2021/12/31 13:41:20;;;;;;;;;6.33;6.33;;;;;;;;4956200;28;45233;-58
2021/12/31 13:43:51;;;;;;;;;6.00;6.00;;;;;;;;4956735;28;45317;-58
2021/12/31 13:46:16;;;;;;;;;5.67;5.67;;;;;;;;4956018;28;45389;-58
2021/12/31 13:48:42;;;;;;;;;7.00;6.00;;;;;;;;4956385;28;45450;-59
2021/12/31 13:51:26;;;;;;;;;6.33;5.00;;;;;;;;4956469;28;45369;-59
2021/12/31 13:53:51;;;;;;;;;6.00;6.00;;;;;;;;4957168;28;45370;-60
2021/12/31 13:56:17;;;;;;;;;6.00;6.00;;;;;;;;4959611;28;45600;-59
2021/12/31 13:58:42;;;;;;;;;4.00;4.00;;;;;;;;4959520;28;46008;-59
2021/12/31 14:01:12;;;;;;;;;8.00;8.00;;;;;;;;4959461;28;45351;-59
2021/12/31 14:03:37;;;;;;;;;6.67;6.67;;;;;;;;4959632;28;45381;-59
2021/12/31 14:06:04;;;;;;;;;6.00;6.00;;;;;;;;4959446;28;45432;-58
2021/12/31 14:10:58;;;;;;;;;6.00;6.00;;;;;;;;4959391;28;45195;-58
2021/12/31 14:13:23;;;;;;;;;5.33;5.33;;;;;;;;4959712;28;45180;-59
2021/12/31 14:15:48;;;;;;;;;5.67;5.00;;;;;;;;4959690;28;45199;-58
2021/12/31 14:18:13;;;;;;;;;6.00;4.33;;;;;;;;4959172;28;45544;-58
2021/12/31 14:20:42;;;;;;;;;7.33;7.33;;;;;;;;4959027;28;45302;-58
2021/12/31 14:23:08;;;;;;;;;6.00;6.00;;;;;;;;4959499;28;45360;-58
2021/12/31 14:25:34;;;;;;;;;9.00;8.00;;;;;;;;4959367;28;45376;-59
2021/12/31 14:28:00;;;;;;;;;8.67;7.67;;;;;;;;4959212;28;45547;-59
2021/12/31 14:30:27;;;;;;;;;4.33;4.33;;;;;;;;4958727;28;45445;-58
2021/12/31 14:32:52;;;;;;;;;9.00;9.00;;;;;;;;4959488;28;45433;-58
2021/12/31 14:35:25;;;;;;;;;8.67;7.00;;;;;;;;4959057;28;45429;-57
2021/12/31 14:37:51;;;;;;;;;9.00;7.67;;;;;;;;4974155;28;45616;-60
2021/12/31 14:40:19;;;;;;;;;7.00;7.00;;;;;;;;4958482;28;45326;-58
2021/12/31 14:42:45;;;;;;;;;6.00;6.00;;;;;;;;4959424;28;45317;-59